sensor_id;sensor_type;location;lat;lon;timestamp;P1;durP1;ratioP1;P2;durP2;ratioP2
50968;SDS011;36982;51.474;7.228;2024-03-23T00:53:35;10.17;;;2.70;;
50968;SDS011;36982;51.474;7.228;2024-03-23T00:56:01;5.90;;;2.63;;
50968;SDS011;36982;51.474;7.228;2024-03-23T00:58:28;9.03;;;2.60;;
50968;SDS011;36982;51.474;7.228;2024-03-23T01:00:53;10.67;;;2.77;;
50968;SDS011;36982;51.474;7.228;2024-03-23T01:03:19;5.90;;;2.17;;
50968;SDS011;36982;51.474;7.228;2024-03-23T01:05:44;7.83;;;2.20;;
50968;SDS011;36982;51.474;7.228;2024-03-23T01:08:10;7.07;;;2.40;;
50968;SDS011;36982;51.474;7.228;2024-03-23T01:10:36;8.77;;;2.13;;
50968;SDS011;36982;51.474;7.228;2024-03-23T01:13:01;5.43;;;2.07;;
50968;SDS011;36982;51.474;7.228;2024-03-23T01:15:27;8.90;;;2.10;;
50968;SDS011;36982;51.474;7.228;2024-03-23T01:17:52;5.33;;;2.17;;
50968;SDS011;36982;51.474;7.228;2024-03-23T01:20:18;7.63;;;2.37;;
50968;SDS011;36982;51.474;7.228;2024-03-23T01:22:44;8.10;;;2.50;;
50968;SDS011;36982;51.474;7.228;2024-03-23T01:25:09;8.63;;;2.00;;
50968;SDS011;36982;51.474;7.228;2024-03-23T01:27:35;8.50;;;2.27;;
50968;SDS011;36982;51.474;7.228;2024-03-23T01:30:00;9.13;;;1.87;;
50968;SDS011;36982;51.474;7.228;2024-03-23T01:32:26;5.27;;;1.60;;
50968;SDS011;36982;51.474;7.228;2024-03-23T01:34:51;6.97;;;1.93;;
50968;SDS011;36982;51.474;7.228;2024-03-23T01:37:17;3.60;;;1.57;;
50968;SDS011;36982;51.474;7.228;2024-03-23T01:39:43;6.47;;;1.63;;
50968;SDS011;36982;51.474;7.228;2024-03-23T01:42:08;6.37;;;1.90;;
50968;SDS011;36982;51.474;7.228;2024-03-23T01:44:34;6.53;;;2.23;;
50968;SDS011;36982;51.474;7.228;2024-03-23T01:46:59;5.83;;;1.70;;
50968;SDS011;36982;51.474;7.228;2024-03-23T01:52:13;7.50;;;2.10;;
50968;SDS011;36982;51.474;7.228;2024-03-23T01:54:39;9.63;;;2.33;;
50968;SDS011;36982;51.474;7.228;2024-03-23T01:57:06;7.87;;;2.00;;
50968;SDS011;36982;51.474;7.228;2024-03-23T01:59:32;5.50;;;1.87;;
50968;SDS011;36982;51.474;7.228;2024-03-23T02:01:57;6.43;;;1.50;;
50968;SDS011;36982;51.474;7.228;2024-03-23T02:04:23;6.90;;;1.73;;
50968;SDS011;36982;51.474;7.228;2024-03-23T02:06:48;4.57;;;1.70;;
50968;SDS011;36982;51.474;7.228;2024-03-23T02:09:14;5.50;;;1.73;;
50968;SDS011;36982;51.474;7.228;2024-03-23T02:11:40;5.50;;;1.67;;
50968;SDS011;36982;51.474;7.228;2024-03-23T02:14:06;5.37;;;1.87;;
50968;SDS011;36982;51.474;7.228;2024-03-23T02:16:32;6.43;;;2.13;;
50968;SDS011;36982;51.474;7.228;2024-03-23T02:18:58;5.37;;;1.63;;
50968;SDS011;36982;51.474;7.228;2024-03-23T02:21:24;4.17;;;1.53;;
50968;SDS011;36982;51.474;7.228;2024-03-23T02:23:49;4.63;;;1.70;;
50968;SDS011;36982;51.474;7.228;2024-03-23T02:26:15;5.03;;;1.93;;
50968;SDS011;36982;51.474;7.228;2024-03-23T02:28:41;3.93;;;1.40;;
50968;SDS011;36982;51.474;7.228;2024-03-23T02:31:07;8.17;;;1.40;;
50968;SDS011;36982;51.474;7.228;2024-03-23T02:33:33;4.63;;;1.70;;
50968;SDS011;36982;51.474;7.228;2024-03-23T02:35:59;4.60;;;2.30;;
50968;SDS011;36982;51.474;7.228;2024-03-23T02:38:25;6.53;;;1.50;;
50968;SDS011;36982;51.474;7.228;2024-03-23T02:40:50;4.70;;;1.80;;
50968;SDS011;36982;51.474;7.228;2024-03-23T02:43:16;4.67;;;1.57;;
50968;SDS011;36982;51.474;7.228;2024-03-23T02:45:42;7.10;;;2.10;;
50968;SDS011;36982;51.474;7.228;2024-03-23T02:48:07;7.13;;;1.77;;
50968;SDS011;36982;51.474;7.228;2024-03-23T02:50:33;7.43;;;1.87;;
50968;SDS011;36982;51.474;7.228;2024-03-23T02:52:58;4.50;;;1.70;;
50968;SDS011;36982;51.474;7.228;2024-03-23T02:55:24;5.87;;;2.03;;
50968;SDS011;36982;51.474;7.228;2024-03-23T02:57:49;6.97;;;2.10;;
50968;SDS011;36982;51.474;7.228;2024-03-23T03:00:15;8.43;;;1.60;;
50968;SDS011;36982;51.474;7.228;2024-03-23T03:02:41;7.00;;;2.20;;
50968;SDS011;36982;51.474;7.228;2024-03-23T03:05:06;4.53;;;1.83;;
50968;SDS011;36982;51.474;7.228;2024-03-23T03:07:33;5.70;;;1.53;;
50968;SDS011;36982;51.474;7.228;2024-03-23T03:09:59;4.50;;;1.70;;
50968;SDS011;36982;51.474;7.228;2024-03-23T03:12:25;4.67;;;1.57;;
50968;SDS011;36982;51.474;7.228;2024-03-23T03:14:50;9.20;;;2.13;;
50968;SDS011;36982;51.474;7.228;2024-03-23T03:17:16;5.03;;;2.47;;
50968;SDS011;36982;51.474;7.228;2024-03-23T03:19:41;4.40;;;1.27;;
50968;SDS011;36982;51.474;7.228;2024-03-23T03:22:07;8.23;;;2.10;;
50968;SDS011;36982;51.474;7.228;2024-03-23T03:24:33;7.00;;;1.53;;
50968;SDS011;36982;51.474;7.228;2024-03-23T03:26:59;6.83;;;1.60;;
50968;SDS011;36982;51.474;7.228;2024-03-23T03:29:24;7.93;;;2.20;;
50968;SDS011;36982;51.474;7.228;2024-03-23T03:31:50;4.87;;;1.30;;
50968;SDS011;36982;51.474;7.228;2024-03-23T03:34:16;5.47;;;1.77;;
50968;SDS011;36982;51.474;7.228;2024-03-23T03:36:41;9.63;;;2.30;;
50968;SDS011;36982;51.474;7.228;2024-03-23T03:39:07;6.37;;;1.57;;
50968;SDS011;36982;51.474;7.228;2024-03-23T03:41:33;3.80;;;1.53;;
50968;SDS011;36982;51.474;7.228;2024-03-23T03:43:58;4.43;;;1.60;;
50968;SDS011;36982;51.474;7.228;2024-03-23T03:46:30;7.37;;;1.53;;
50968;SDS011;36982;51.474;7.228;2024-03-23T03:48:55;6.13;;;1.53;;
50968;SDS011;36982;51.474;7.228;2024-03-23T03:51:21;6.63;;;1.77;;
50968;SDS011;36982;51.474;7.228;2024-03-23T03:53:47;6.53;;;1.93;;
50968;SDS011;36982;51.474;7.228;2024-03-23T03:56:12;2.80;;;1.60;;
50968;SDS011;36982;51.474;7.228;2024-03-23T03:58:38;8.33;;;1.70;;
50968;SDS011;36982;51.474;7.228;2024-03-23T04:01:04;9.33;;;2.27;;
50968;SDS011;36982;51.474;7.228;2024-03-23T04:03:30;5.53;;;1.43;;
50968;SDS011;36982;51.474;7.228;2024-03-23T04:05:56;2.23;;;1.10;;
50968;SDS011;36982;51.474;7.228;2024-03-23T04:08:21;4.83;;;1.37;;
50968;SDS011;36982;51.474;7.228;2024-03-23T04:10:47;5.70;;;1.80;;
50968;SDS011;36982;51.474;7.228;2024-03-23T04:13:13;7.87;;;2.07;;
50968;SDS011;36982;51.474;7.228;2024-03-23T04:15:39;3.80;;;1.20;;
50968;SDS011;36982;51.474;7.228;2024-03-23T04:18:05;3.40;;;1.33;;
50968;SDS011;36982;51.474;7.228;2024-03-23T04:20:30;5.40;;;1.40;;
50968;SDS011;36982;51.474;7.228;2024-03-23T04:22:57;6.97;;;1.30;;
50968;SDS011;36982;51.474;7.228;2024-03-23T04:25:23;5.70;;;1.50;;
50968;SDS011;36982;51.474;7.228;2024-03-23T04:27:48;6.13;;;2.00;;
50968;SDS011;36982;51.474;7.228;2024-03-23T04:30:14;5.13;;;1.60;;
50968;SDS011;36982;51.474;7.228;2024-03-23T04:32:41;4.90;;;1.50;;
50968;SDS011;36982;51.474;7.228;2024-03-23T04:35:07;8.17;;;2.00;;
50968;SDS011;36982;51.474;7.228;2024-03-23T04:37:35;3.93;;;1.37;;
50968;SDS011;36982;51.474;7.228;2024-03-23T04:40:02;3.17;;;1.33;;
50968;SDS011;36982;51.474;7.228;2024-03-23T04:42:28;7.63;;;2.17;;
50968;SDS011;36982;51.474;7.228;2024-03-23T04:44:54;5.50;;;2.03;;
50968;SDS011;36982;51.474;7.228;2024-03-23T04:47:20;4.27;;;2.00;;
50968;SDS011;36982;51.474;7.228;2024-03-23T04:49:45;5.53;;;1.77;;
50968;SDS011;36982;51.474;7.228;2024-03-23T04:52:11;6.47;;;1.97;;
50968;SDS011;36982;51.474;7.228;2024-03-23T04:54:37;6.27;;;2.67;;
50968;SDS011;36982;51.474;7.228;2024-03-23T04:57:05;4.60;;;1.90;;
50968;SDS011;36982;51.474;7.228;2024-03-23T04:59:31;5.27;;;1.90;;
50968;SDS011;36982;51.474;7.228;2024-03-23T05:01:56;5.40;;;2.67;;
50968;SDS011;36982;51.474;7.228;2024-03-23T05:04:22;8.20;;;2.30;;
50968;SDS011;36982;51.474;7.228;2024-03-23T05:06:48;11.17;;;2.40;;
50968;SDS011;36982;51.474;7.228;2024-03-23T05:09:13;9.40;;;2.50;;
50968;SDS011;36982;51.474;7.228;2024-03-23T05:11:39;5.30;;;2.23;;
50968;SDS011;36982;51.474;7.228;2024-03-23T05:14:06;8.63;;;2.10;;
50968;SDS011;36982;51.474;7.228;2024-03-23T05:16:32;5.70;;;1.70;;
50968;SDS011;36982;51.474;7.228;2024-03-23T05:18:58;8.00;;;2.10;;
50968;SDS011;36982;51.474;7.228;2024-03-23T05:21:23;4.40;;;1.50;;
50968;SDS011;36982;51.474;7.228;2024-03-23T05:26:35;9.80;;;2.23;;
50968;SDS011;36982;51.474;7.228;2024-03-23T05:29:01;6.50;;;1.50;;
50968;SDS011;36982;51.474;7.228;2024-03-23T05:31:28;6.07;;;1.77;;
50968;SDS011;36982;51.474;7.228;2024-03-23T05:33:55;8.47;;;2.40;;
50968;SDS011;36982;51.474;7.228;2024-03-23T05:36:21;7.10;;;2.30;;
50968;SDS011;36982;51.474;7.228;2024-03-23T05:38:46;8.67;;;3.50;;
50968;SDS011;36982;51.474;7.228;2024-03-23T05:41:13;8.13;;;3.70;;
50968;SDS011;36982;51.474;7.228;2024-03-23T05:43:38;10.67;;;4.20;;
50968;SDS011;36982;51.474;7.228;2024-03-23T05:46:04;8.90;;;4.50;;
50968;SDS011;36982;51.474;7.228;2024-03-23T05:48:30;9.73;;;4.77;;
50968;SDS011;36982;51.474;7.228;2024-03-23T05:50:56;12.60;;;5.27;;
50968;SDS011;36982;51.474;7.228;2024-03-23T05:53:23;9.13;;;5.60;;
50968;SDS011;36982;51.474;7.228;2024-03-23T05:55:49;8.80;;;5.17;;
50968;SDS011;36982;51.474;7.228;2024-03-23T05:58:16;10.70;;;5.60;;
50968;SDS011;36982;51.474;7.228;2024-03-23T06:00:43;11.47;;;5.27;;
50968;SDS011;36982;51.474;7.228;2024-03-23T06:03:09;7.80;;;4.77;;
50968;SDS011;36982;51.474;7.228;2024-03-23T06:05:37;8.63;;;5.33;;
50968;SDS011;36982;51.474;7.228;2024-03-23T06:08:04;12.93;;;5.50;;
50968;SDS011;36982;51.474;7.228;2024-03-23T06:10:30;9.63;;;5.40;;
50968;SDS011;36982;51.474;7.228;2024-03-23T06:12:59;10.30;;;5.10;;
50968;SDS011;36982;51.474;7.228;2024-03-23T06:15:24;10.07;;;5.07;;
50968;SDS011;36982;51.474;7.228;2024-03-23T06:17:50;9.47;;;4.90;;
50968;SDS011;36982;51.474;7.228;2024-03-23T06:20:16;11.80;;;4.63;;
50968;SDS011;36982;51.474;7.228;2024-03-23T06:22:41;10.23;;;4.27;;
50968;SDS011;36982;51.474;7.228;2024-03-23T06:25:07;10.17;;;4.73;;
50968;SDS011;36982;51.474;7.228;2024-03-23T06:27:33;8.30;;;4.07;;
50968;SDS011;36982;51.474;7.228;2024-03-23T06:29:59;10.63;;;4.43;;
50968;SDS011;36982;51.474;7.228;2024-03-23T06:32:25;10.60;;;3.97;;
50968;SDS011;36982;51.474;7.228;2024-03-23T06:34:50;7.13;;;4.03;;
50968;SDS011;36982;51.474;7.228;2024-03-23T06:37:16;13.83;;;4.80;;
50968;SDS011;36982;51.474;7.228;2024-03-23T06:39:41;11.03;;;5.13;;
50968;SDS011;36982;51.474;7.228;2024-03-23T06:42:07;10.47;;;5.23;;
50968;SDS011;36982;51.474;7.228;2024-03-23T06:44:33;12.33;;;6.60;;
50968;SDS011;36982;51.474;7.228;2024-03-23T06:46:58;13.93;;;6.70;;
50968;SDS011;36982;51.474;7.228;2024-03-23T06:49:24;10.07;;;6.17;;
50968;SDS011;36982;51.474;7.228;2024-03-23T06:51:50;11.43;;;7.13;;
50968;SDS011;36982;51.474;7.228;2024-03-23T06:54:16;13.20;;;6.17;;
50968;SDS011;36982;51.474;7.228;2024-03-23T06:56:43;11.73;;;6.37;;
50968;SDS011;36982;51.474;7.228;2024-03-23T06:59:09;14.60;;;6.67;;
50968;SDS011;36982;51.474;7.228;2024-03-23T07:01:35;11.57;;;6.83;;
50968;SDS011;36982;51.474;7.228;2024-03-23T07:04:00;11.13;;;6.83;;
50968;SDS011;36982;51.474;7.228;2024-03-23T07:06:26;15.17;;;7.60;;
50968;SDS011;36982;51.474;7.228;2024-03-23T07:08:52;16.00;;;7.67;;
50968;SDS011;36982;51.474;7.228;2024-03-23T07:11:21;14.47;;;7.87;;
50968;SDS011;36982;51.474;7.228;2024-03-23T07:13:50;16.63;;;8.33;;
50968;SDS011;36982;51.474;7.228;2024-03-23T07:16:17;12.27;;;7.47;;
50968;SDS011;36982;51.474;7.228;2024-03-23T07:18:42;14.63;;;7.70;;
50968;SDS011;36982;51.474;7.228;2024-03-23T07:21:08;18.00;;;8.87;;
50968;SDS011;36982;51.474;7.228;2024-03-23T07:23:34;11.10;;;7.50;;
50968;SDS011;36982;51.474;7.228;2024-03-23T07:26:03;10.07;;;6.63;;
50968;SDS011;36982;51.474;7.228;2024-03-23T07:28:30;19.47;;;8.00;;
50968;SDS011;36982;51.474;7.228;2024-03-23T07:31:04;14.13;;;8.33;;
50968;SDS011;36982;51.474;7.228;2024-03-23T07:33:30;12.83;;;8.23;;
50968;SDS011;36982;51.474;7.228;2024-03-23T07:35:56;16.20;;;8.83;;
50968;SDS011;36982;51.474;7.228;2024-03-23T07:38:22;22.20;;;9.63;;
50968;SDS011;36982;51.474;7.228;2024-03-23T07:40:48;14.40;;;8.97;;
50968;SDS011;36982;51.474;7.228;2024-03-23T07:43:19;13.53;;;8.27;;
50968;SDS011;36982;51.474;7.228;2024-03-23T07:45:50;16.67;;;8.57;;
50968;SDS011;36982;51.474;7.228;2024-03-23T07:48:18;15.67;;;9.23;;
50968;SDS011;36982;51.474;7.228;2024-03-23T07:50:43;14.17;;;8.47;;
50968;SDS011;36982;51.474;7.228;2024-03-23T07:53:09;14.93;;;8.27;;
50968;SDS011;36982;51.474;7.228;2024-03-23T07:55:35;12.80;;;6.83;;
50968;SDS011;36982;51.474;7.228;2024-03-23T07:58:00;13.63;;;7.83;;
50968;SDS011;36982;51.474;7.228;2024-03-23T08:00:26;17.97;;;8.23;;
50968;SDS011;36982;51.474;7.228;2024-03-23T08:02:51;13.47;;;5.97;;
50968;SDS011;36982;51.474;7.228;2024-03-23T08:05:17;13.53;;;6.43;;
50968;SDS011;36982;51.474;7.228;2024-03-23T08:07:42;14.03;;;6.60;;
50968;SDS011;36982;51.474;7.228;2024-03-23T08:10:08;13.83;;;5.97;;
50968;SDS011;36982;51.474;7.228;2024-03-23T08:12:34;14.27;;;5.90;;
50968;SDS011;36982;51.474;7.228;2024-03-23T08:14:59;11.13;;;6.17;;
50968;SDS011;36982;51.474;7.228;2024-03-23T08:17:25;14.80;;;5.57;;
50968;SDS011;36982;51.474;7.228;2024-03-23T08:19:50;8.30;;;5.10;;
50968;SDS011;36982;51.474;7.228;2024-03-23T08:22:17;15.07;;;5.40;;
50968;SDS011;36982;51.474;7.228;2024-03-23T08:24:43;12.20;;;5.60;;
50968;SDS011;36982;51.474;7.228;2024-03-23T08:27:08;12.03;;;5.77;;
50968;SDS011;36982;51.474;7.228;2024-03-23T08:29:34;13.57;;;5.57;;
50968;SDS011;36982;51.474;7.228;2024-03-23T08:31:59;9.70;;;5.10;;
50968;SDS011;36982;51.474;7.228;2024-03-23T08:34:25;11.33;;;4.27;;
50968;SDS011;36982;51.474;7.228;2024-03-23T08:36:51;11.23;;;4.47;;
50968;SDS011;36982;51.474;7.228;2024-03-23T08:39:17;11.83;;;4.90;;
50968;SDS011;36982;51.474;7.228;2024-03-23T08:41:42;8.70;;;3.50;;
50968;SDS011;36982;51.474;7.228;2024-03-23T08:44:11;9.47;;;3.53;;
50968;SDS011;36982;51.474;7.228;2024-03-23T08:46:36;15.40;;;4.10;;
50968;SDS011;36982;51.474;7.228;2024-03-23T08:49:02;9.63;;;3.67;;
50968;SDS011;36982;51.474;7.228;2024-03-23T08:51:27;9.73;;;3.50;;
50968;SDS011;36982;51.474;7.228;2024-03-23T08:53:53;10.33;;;3.93;;
50968;SDS011;36982;51.474;7.228;2024-03-23T08:56:19;9.03;;;3.73;;
50968;SDS011;36982;51.474;7.228;2024-03-23T08:58:44;8.33;;;3.13;;
50968;SDS011;36982;51.474;7.228;2024-03-23T09:01:11;10.13;;;3.10;;
50968;SDS011;36982;51.474;7.228;2024-03-23T09:03:40;5.70;;;2.93;;
50968;SDS011;36982;51.474;7.228;2024-03-23T09:06:14;16.23;;;6.90;;
50968;SDS011;36982;51.474;7.228;2024-03-23T09:08:40;10.60;;;2.87;;
50968;SDS011;36982;51.474;7.228;2024-03-23T09:11:07;8.37;;;2.83;;
50968;SDS011;36982;51.474;7.228;2024-03-23T09:13:34;7.70;;;2.90;;
50968;SDS011;36982;51.474;7.228;2024-03-23T09:16:01;7.63;;;2.47;;
50968;SDS011;36982;51.474;7.228;2024-03-23T09:18:27;5.37;;;2.37;;
50968;SDS011;36982;51.474;7.228;2024-03-23T09:20:56;7.90;;;2.70;;
50968;SDS011;36982;51.474;7.228;2024-03-23T09:23:22;5.90;;;2.33;;
50968;SDS011;36982;51.474;7.228;2024-03-23T09:25:47;8.53;;;3.20;;
50968;SDS011;36982;51.474;7.228;2024-03-23T09:28:13;7.80;;;2.60;;
50968;SDS011;36982;51.474;7.228;2024-03-23T09:30:38;4.40;;;2.27;;
50968;SDS011;36982;51.474;7.228;2024-03-23T09:33:07;5.53;;;1.90;;
50968;SDS011;36982;51.474;7.228;2024-03-23T09:35:40;5.40;;;2.00;;
50968;SDS011;36982;51.474;7.228;2024-03-23T09:38:07;5.80;;;1.80;;
50968;SDS011;36982;51.474;7.228;2024-03-23T09:40:34;5.23;;;1.80;;
50968;SDS011;36982;51.474;7.228;2024-03-23T09:43:00;2.93;;;1.53;;
50968;SDS011;36982;51.474;7.228;2024-03-23T09:45:29;4.77;;;1.80;;
50968;SDS011;36982;51.474;7.228;2024-03-23T09:47:55;3.30;;;1.60;;
50968;SDS011;36982;51.474;7.228;2024-03-23T09:50:21;4.10;;;2.00;;
50968;SDS011;36982;51.474;7.228;2024-03-23T09:52:47;4.00;;;1.80;;
50968;SDS011;36982;51.474;7.228;2024-03-23T09:55:13;5.00;;;1.87;;
50968;SDS011;36982;51.474;7.228;2024-03-23T09:57:41;6.33;;;3.03;;
50968;SDS011;36982;51.474;7.228;2024-03-23T10:00:07;7.90;;;2.60;;
50968;SDS011;36982;51.474;7.228;2024-03-23T10:02:34;7.93;;;4.30;;
50968;SDS011;36982;51.474;7.228;2024-03-23T10:05:00;7.03;;;3.30;;
50968;SDS011;36982;51.474;7.228;2024-03-23T10:07:26;7.00;;;2.80;;
50968;SDS011;36982;51.474;7.228;2024-03-23T10:09:53;4.77;;;2.10;;
50968;SDS011;36982;51.474;7.228;2024-03-23T10:12:19;3.30;;;1.60;;
50968;SDS011;36982;51.474;7.228;2024-03-23T10:14:46;6.07;;;2.33;;
50968;SDS011;36982;51.474;7.228;2024-03-23T10:17:15;3.63;;;2.13;;
50968;SDS011;36982;51.474;7.228;2024-03-23T10:19:45;6.20;;;2.30;;
50968;SDS011;36982;51.474;7.228;2024-03-23T10:22:22;6.77;;;2.20;;
50968;SDS011;36982;51.474;7.228;2024-03-23T10:24:49;5.67;;;1.77;;
50968;SDS011;36982;51.474;7.228;2024-03-23T10:27:15;16.33;;;3.07;;
50968;SDS011;36982;51.474;7.228;2024-03-23T10:29:48;7.43;;;1.40;;
50968;SDS011;36982;51.474;7.228;2024-03-23T10:32:15;5.83;;;1.50;;
50968;SDS011;36982;51.474;7.228;2024-03-23T10:34:41;4.60;;;1.70;;
50968;SDS011;36982;51.474;7.228;2024-03-23T10:37:07;4.73;;;1.63;;
50968;SDS011;36982;51.474;7.228;2024-03-23T10:39:37;4.60;;;1.50;;
50968;SDS011;36982;51.474;7.228;2024-03-23T10:42:05;3.50;;;1.47;;
50968;SDS011;36982;51.474;7.228;2024-03-23T10:44:32;3.33;;;1.50;;
50968;SDS011;36982;51.474;7.228;2024-03-23T10:46:59;4.57;;;1.47;;
50968;SDS011;36982;51.474;7.228;2024-03-23T10:49:29;3.80;;;1.47;;
50968;SDS011;36982;51.474;7.228;2024-03-23T10:51:59;5.30;;;1.63;;
50968;SDS011;36982;51.474;7.228;2024-03-23T10:54:26;5.17;;;1.50;;
50968;SDS011;36982;51.474;7.228;2024-03-23T10:56:55;5.40;;;1.17;;
50968;SDS011;36982;51.474;7.228;2024-03-23T10:59:27;5.80;;;2.03;;
50968;SDS011;36982;51.474;7.228;2024-03-23T11:01:54;4.30;;;1.23;;
50968;SDS011;36982;51.474;7.228;2024-03-23T11:04:29;2.13;;;1.20;;
50968;SDS011;36982;51.474;7.228;2024-03-23T11:07:27;0.87;;;0.50;;
50968;SDS011;36982;51.474;7.228;2024-03-23T11:09:52;1.33;;;0.40;;
50968;SDS011;36982;51.474;7.228;2024-03-23T11:14:52;1.77;;;0.37;;
50968;SDS011;36982;51.474;7.228;2024-03-23T11:17:19;2.93;;;0.70;;
50968;SDS011;36982;51.474;7.228;2024-03-23T11:20:01;4.00;;;1.13;;
50968;SDS011;36982;51.474;7.228;2024-03-23T11:27:49;1.30;;;0.60;;
50968;SDS011;36982;51.474;7.228;2024-03-23T11:30:33;3.77;;;0.70;;
50968;SDS011;36982;51.474;7.228;2024-03-23T11:32:59;1.17;;;0.50;;
50968;SDS011;36982;51.474;7.228;2024-03-23T11:35:28;4.63;;;0.63;;
50968;SDS011;36982;51.474;7.228;2024-03-23T11:40:26;2.80;;;0.87;;
50968;SDS011;36982;51.474;7.228;2024-03-23T11:43:02;1.23;;;0.87;;
50968;SDS011;36982;51.474;7.228;2024-03-23T11:45:29;3.30;;;1.00;;
50968;SDS011;36982;51.474;7.228;2024-03-23T11:48:28;1.30;;;0.70;;
50968;SDS011;36982;51.474;7.228;2024-03-23T11:50:55;1.80;;;1.00;;
50968;SDS011;36982;51.474;7.228;2024-03-23T11:53:23;2.13;;;1.10;;
50968;SDS011;36982;51.474;7.228;2024-03-23T11:58:19;4.23;;;1.30;;
50968;SDS011;36982;51.474;7.228;2024-03-23T12:00:49;2.20;;;1.20;;
50968;SDS011;36982;51.474;7.228;2024-03-23T12:03:19;4.27;;;1.33;;
50968;SDS011;36982;51.474;7.228;2024-03-23T12:05:51;4.60;;;1.50;;
50968;SDS011;36982;51.474;7.228;2024-03-23T12:08:34;4.70;;;1.33;;
50968;SDS011;36982;51.474;7.228;2024-03-23T12:13:35;3.23;;;1.40;;
50968;SDS011;36982;51.474;7.228;2024-03-23T12:18:49;2.27;;;1.17;;
50968;SDS011;36982;51.474;7.228;2024-03-23T12:21:16;4.87;;;1.43;;
50968;SDS011;36982;51.474;7.228;2024-03-23T12:23:42;4.53;;;1.13;;
50968;SDS011;36982;51.474;7.228;2024-03-23T12:26:10;3.47;;;1.30;;
50968;SDS011;36982;51.474;7.228;2024-03-23T12:28:36;5.10;;;1.10;;
50968;SDS011;36982;51.474;7.228;2024-03-23T12:31:02;5.10;;;1.00;;
50968;SDS011;36982;51.474;7.228;2024-03-23T12:33:29;2.23;;;0.67;;
50968;SDS011;36982;51.474;7.228;2024-03-23T12:35:54;3.03;;;0.83;;
50968;SDS011;36982;51.474;7.228;2024-03-23T12:38:20;2.27;;;1.10;;
50968;SDS011;36982;51.474;7.228;2024-03-23T12:40:46;2.20;;;0.90;;
50968;SDS011;36982;51.474;7.228;2024-03-23T12:43:15;2.33;;;0.87;;
50968;SDS011;36982;51.474;7.228;2024-03-23T12:45:45;4.20;;;0.90;;
50968;SDS011;36982;51.474;7.228;2024-03-23T12:48:12;0.70;;;0.50;;
50968;SDS011;36982;51.474;7.228;2024-03-23T12:50:37;2.47;;;0.53;;
50968;SDS011;36982;51.474;7.228;2024-03-23T12:53:03;1.80;;;0.73;;
50968;SDS011;36982;51.474;7.228;2024-03-23T12:55:29;3.53;;;0.97;;
50968;SDS011;36982;51.474;7.228;2024-03-23T12:57:54;1.33;;;1.00;;
50968;SDS011;36982;51.474;7.228;2024-03-23T13:00:20;2.67;;;0.90;;
50968;SDS011;36982;51.474;7.228;2024-03-23T13:02:45;2.57;;;1.13;;
50968;SDS011;36982;51.474;7.228;2024-03-23T13:05:11;2.37;;;1.00;;
50968;SDS011;36982;51.474;7.228;2024-03-23T13:07:37;3.17;;;1.30;;
50968;SDS011;36982;51.474;7.228;2024-03-23T13:10:03;3.53;;;1.17;;
50968;SDS011;36982;51.474;7.228;2024-03-23T13:12:30;2.67;;;0.83;;
50968;SDS011;36982;51.474;7.228;2024-03-23T13:14:57;3.13;;;1.10;;
50968;SDS011;36982;51.474;7.228;2024-03-23T13:17:24;4.10;;;1.30;;
50968;SDS011;36982;51.474;7.228;2024-03-23T13:19:52;3.77;;;1.37;;
50968;SDS011;36982;51.474;7.228;2024-03-23T13:22:18;5.07;;;1.53;;
50968;SDS011;36982;51.474;7.228;2024-03-23T13:24:43;2.43;;;1.00;;
50968;SDS011;36982;51.474;7.228;2024-03-23T13:27:09;2.43;;;1.00;;
50968;SDS011;36982;51.474;7.228;2024-03-23T13:29:36;2.93;;;0.70;;
50968;SDS011;36982;51.474;7.228;2024-03-23T13:32:02;1.07;;;0.67;;
50968;SDS011;36982;51.474;7.228;2024-03-23T13:34:28;1.63;;;0.80;;
50968;SDS011;36982;51.474;7.228;2024-03-23T13:36:54;1.73;;;0.50;;
50968;SDS011;36982;51.474;7.228;2024-03-23T13:39:23;2.53;;;0.90;;
50968;SDS011;36982;51.474;7.228;2024-03-23T13:41:48;3.00;;;0.80;;
50968;SDS011;36982;51.474;7.228;2024-03-23T13:44:14;3.80;;;1.00;;
50968;SDS011;36982;51.474;7.228;2024-03-23T13:46:41;1.63;;;0.50;;
50968;SDS011;36982;51.474;7.228;2024-03-23T13:49:33;2.83;;;0.47;;
50968;SDS011;36982;51.474;7.228;2024-03-23T13:51:58;1.33;;;0.40;;
50968;SDS011;36982;51.474;7.228;2024-03-23T13:54:24;1.07;;;0.50;;
50968;SDS011;36982;51.474;7.228;2024-03-23T13:56:51;1.70;;;0.60;;
50968;SDS011;36982;51.474;7.228;2024-03-23T13:59:17;2.50;;;0.60;;
50968;SDS011;36982;51.474;7.228;2024-03-23T14:01:43;1.93;;;0.87;;
50968;SDS011;36982;51.474;7.228;2024-03-23T14:04:10;1.70;;;1.17;;
50968;SDS011;36982;51.474;7.228;2024-03-23T14:06:36;4.20;;;1.23;;
50968;SDS011;36982;51.474;7.228;2024-03-23T14:09:02;3.90;;;1.30;;
50968;SDS011;36982;51.474;7.228;2024-03-23T14:11:33;1.57;;;0.80;;
50968;SDS011;36982;51.474;7.228;2024-03-23T14:14:00;2.80;;;1.17;;
50968;SDS011;36982;51.474;7.228;2024-03-23T14:16:25;2.10;;;0.90;;
50968;SDS011;36982;51.474;7.228;2024-03-23T14:18:51;1.40;;;0.80;;
50968;SDS011;36982;51.474;7.228;2024-03-23T14:21:17;1.23;;;0.53;;
50968;SDS011;36982;51.474;7.228;2024-03-23T14:23:42;1.30;;;0.60;;
50968;SDS011;36982;51.474;7.228;2024-03-23T14:26:08;1.17;;;0.50;;
50968;SDS011;36982;51.474;7.228;2024-03-23T14:28:33;1.97;;;0.67;;
50968;SDS011;36982;51.474;7.228;2024-03-23T14:31:00;1.47;;;0.67;;
50968;SDS011;36982;51.474;7.228;2024-03-23T14:33:26;0.93;;;0.43;;
50968;SDS011;36982;51.474;7.228;2024-03-23T14:35:54;1.73;;;0.43;;
50968;SDS011;36982;51.474;7.228;2024-03-23T14:38:23;3.70;;;0.50;;
50968;SDS011;36982;51.474;7.228;2024-03-23T14:40:49;0.60;;;0.40;;
50968;SDS011;36982;51.474;7.228;2024-03-23T14:43:16;1.73;;;0.50;;
50968;SDS011;36982;51.474;7.228;2024-03-23T14:45:48;2.00;;;0.40;;
50968;SDS011;36982;51.474;7.228;2024-03-23T14:48:42;2.67;;;0.80;;
50968;SDS011;36982;51.474;7.228;2024-03-23T14:51:09;2.13;;;0.63;;
50968;SDS011;36982;51.474;7.228;2024-03-23T14:53:36;2.17;;;0.63;;
50968;SDS011;36982;51.474;7.228;2024-03-23T14:56:05;2.67;;;0.60;;
50968;SDS011;36982;51.474;7.228;2024-03-23T14:58:31;1.90;;;0.60;;
50968;SDS011;36982;51.474;7.228;2024-03-23T15:01:03;2.10;;;0.60;;
50968;SDS011;36982;51.474;7.228;2024-03-23T15:03:30;2.10;;;0.80;;
50968;SDS011;36982;51.474;7.228;2024-03-23T15:05:56;4.20;;;0.90;;
50968;SDS011;36982;51.474;7.228;2024-03-23T15:08:23;2.83;;;0.80;;
50968;SDS011;36982;51.474;7.228;2024-03-23T15:10:49;2.17;;;0.77;;
50968;SDS011;36982;51.474;7.228;2024-03-23T15:13:14;3.27;;;0.90;;
50968;SDS011;36982;51.474;7.228;2024-03-23T15:15:41;3.17;;;0.90;;
50968;SDS011;36982;51.474;7.228;2024-03-23T15:18:10;1.83;;;0.83;;
50968;SDS011;36982;51.474;7.228;2024-03-23T15:20:57;1.37;;;0.60;;
50968;SDS011;36982;51.474;7.228;2024-03-23T15:23:27;2.57;;;0.73;;
50968;SDS011;36982;51.474;7.228;2024-03-23T15:25:57;1.03;;;0.57;;
50968;SDS011;36982;51.474;7.228;2024-03-23T15:28:23;3.60;;;0.80;;
50968;SDS011;36982;51.474;7.228;2024-03-23T15:30:51;1.87;;;0.60;;
50968;SDS011;36982;51.474;7.228;2024-03-23T15:33:17;2.27;;;0.93;;
50968;SDS011;36982;51.474;7.228;2024-03-23T15:35:42;2.40;;;0.80;;
50968;SDS011;36982;51.474;7.228;2024-03-23T15:38:08;2.63;;;0.90;;
50968;SDS011;36982;51.474;7.228;2024-03-23T15:40:34;5.37;;;0.87;;
50968;SDS011;36982;51.474;7.228;2024-03-23T15:43:00;1.23;;;0.70;;
50968;SDS011;36982;51.474;7.228;2024-03-23T15:45:26;1.70;;;0.70;;
50968;SDS011;36982;51.474;7.228;2024-03-23T15:47:52;2.33;;;0.97;;
50968;SDS011;36982;51.474;7.228;2024-03-23T15:50:17;3.20;;;0.80;;
50968;SDS011;36982;51.474;7.228;2024-03-23T15:52:43;1.83;;;0.90;;
50968;SDS011;36982;51.474;7.228;2024-03-23T15:55:08;1.77;;;0.83;;
50968;SDS011;36982;51.474;7.228;2024-03-23T15:57:35;2.60;;;0.80;;
50968;SDS011;36982;51.474;7.228;2024-03-23T16:00:01;2.63;;;0.87;;